sensor_id;sensor_type;location;lat;lon;timestamp;temperature;humidity
1700;DHT22;847;48.058;7.810;2024-03-08T00:01:31;3.70;99.00
1700;DHT22;847;48.058;7.810;2024-03-08T00:04:03;3.70;99.00
1700;DHT22;847;48.058;7.810;2024-03-08T00:06:32;3.70;99.00
1700;DHT22;847;48.058;7.810;2024-03-08T00:09:01;3.70;99.00
1700;DHT22;847;48.058;7.810;2024-03-08T00:11:28;3.70;99.00
1700;DHT22;847;48.058;7.810;2024-03-08T00:13:56;3.70;99.00
1700;DHT22;847;48.058;7.810;2024-03-08T00:16:24;3.70;99.00
1700;DHT22;847;48.058;7.810;2024-03-08T00:18:53;3.70;99.00
1700;DHT22;847;48.058;7.810;2024-03-08T00:21:24;3.70;99.00
1700;DHT22;847;48.058;7.810;2024-03-08T00:24:03;3.70;99.00
1700;DHT22;847;48.058;7.810;2024-03-08T00:26:43;3.60;99.00
1700;DHT22;847;48.058;7.810;2024-03-08T00:29:15;3.40;99.00
1700;DHT22;847;48.058;7.810;2024-03-08T00:31:46;3.30;99.00
1700;DHT22;847;48.058;7.810;2024-03-08T00:34:14;3.40;99.00
1700;DHT22;847;48.058;7.810;2024-03-08T00:36:46;3.50;99.00
1700;DHT22;847;48.058;7.810;2024-03-08T00:39:15;3.50;99.00
1700;DHT22;847;48.058;7.810;2024-03-08T00:41:45;3.50;99.00
1700;DHT22;847;48.058;7.810;2024-03-08T00:44:13;3.50;99.00
1700;DHT22;847;48.058;7.810;2024-03-08T00:46:43;3.50;99.00
1700;DHT22;847;48.058;7.810;2024-03-08T00:49:13;3.50;99.00
1700;DHT22;847;48.058;7.810;2024-03-08T00:51:43;3.40;99.00
1700;DHT22;847;48.058;7.810;2024-03-08T00:54:12;3.30;99.00
1700;DHT22;847;48.058;7.810;2024-03-08T00:56:42;3.40;99.00
1700;DHT22;847;48.058;7.810;2024-03-08T00:59:09;3.40;99.00
1700;DHT22;847;48.058;7.810;2024-03-08T01:01:37;3.30;99.00
1700;DHT22;847;48.058;7.810;2024-03-08T01:04:05;3.30;99.00
1700;DHT22;847;48.058;7.810;2024-03-08T01:06:33;3.20;99.00
1700;DHT22;847;48.058;7.810;2024-03-08T01:09:03;3.20;99.00
1700;DHT22;847;48.058;7.810;2024-03-08T01:11:33;3.00;99.00
1700;DHT22;847;48.058;7.810;2024-03-08T01:14:01;3.00;99.00
1700;DHT22;847;48.058;7.810;2024-03-08T01:16:28;3.00;99.00
1700;DHT22;847;48.058;7.810;2024-03-08T01:18:57;2.90;99.00
1700;DHT22;847;48.058;7.810;2024-03-08T01:21:25;3.00;99.00
1700;DHT22;847;48.058;7.810;2024-03-08T01:23:52;3.00;99.00
1700;DHT22;847;48.058;7.810;2024-03-08T01:26:21;3.00;99.00
1700;DHT22;847;48.058;7.810;2024-03-08T01:28:49;2.90;99.00
1700;DHT22;847;48.058;7.810;2024-03-08T01:31:16;2.80;99.00
1700;DHT22;847;48.058;7.810;2024-03-08T01:33:44;2.80;99.00
1700;DHT22;847;48.058;7.810;2024-03-08T01:36:11;2.90;99.00
1700;DHT22;847;48.058;7.810;2024-03-08T01:38:41;2.90;99.00
1700;DHT22;847;48.058;7.810;2024-03-08T01:41:09;2.90;99.00
1700;DHT22;847;48.058;7.810;2024-03-08T01:43:39;3.00;99.00
1700;DHT22;847;48.058;7.810;2024-03-08T01:46:07;3.00;99.00
1700;DHT22;847;48.058;7.810;2024-03-08T01:48:37;3.00;99.00
1700;DHT22;847;48.058;7.810;2024-03-08T01:51:07;2.90;99.00
1700;DHT22;847;48.058;7.810;2024-03-08T01:53:35;2.90;99.00
1700;DHT22;847;48.058;7.810;2024-03-08T01:56:03;2.80;99.00
1700;DHT22;847;48.058;7.810;2024-03-08T01:58:30;2.80;99.00
1700;DHT22;847;48.058;7.810;2024-03-08T02:01:03;2.80;99.00
1700;DHT22;847;48.058;7.810;2024-03-08T02:03:33;2.80;99.00
1700;DHT22;847;48.058;7.810;2024-03-08T02:06:00;2.70;99.00
1700;DHT22;847;48.058;7.810;2024-03-08T02:08:28;2.60;99.00
1700;DHT22;847;48.058;7.810;2024-03-08T02:10:57;2.60;99.00
1700;DHT22;847;48.058;7.810;2024-03-08T02:13:33;2.70;99.00
1700;DHT22;847;48.058;7.810;2024-03-08T02:16:02;2.70;99.00
1700;DHT22;847;48.058;7.810;2024-03-08T02:18:33;2.60;99.00
1700;DHT22;847;48.058;7.810;2024-03-08T02:21:07;2.50;99.00
1700;DHT22;847;48.058;7.810;2024-03-08T02:23:34;2.40;99.00
1700;DHT22;847;48.058;7.810;2024-03-08T02:26:03;2.40;99.00
1700;DHT22;847;48.058;7.810;2024-03-08T02:28:31;2.40;99.00
1700;DHT22;847;48.058;7.810;2024-03-08T02:30:59;2.30;99.00
1700;DHT22;847;48.058;7.810;2024-03-08T02:33:29;2.40;99.00
1700;DHT22;847;48.058;7.810;2024-03-08T02:35:56;2.40;99.00
1700;DHT22;847;48.058;7.810;2024-03-08T02:38:25;2.30;99.00
1700;DHT22;847;48.058;7.810;2024-03-08T02:40:53;2.20;99.00
1700;DHT22;847;48.058;7.810;2024-03-08T02:43:21;2.20;99.00
1700;DHT22;847;48.058;7.810;2024-03-08T02:45:50;2.30;99.00
1700;DHT22;847;48.058;7.810;2024-03-08T02:48:19;2.30;99.00
1700;DHT22;847;48.058;7.810;2024-03-08T02:50:47;2.30;99.00
1700;DHT22;847;48.058;7.810;2024-03-08T02:53:24;2.30;99.00
1700;DHT22;847;48.058;7.810;2024-03-08T02:55:53;2.20;99.00
1700;DHT22;847;48.058;7.810;2024-03-08T02:58:20;2.10;99.00
1700;DHT22;847;48.058;7.810;2024-03-08T03:00:49;2.10;99.00
1700;DHT22;847;48.058;7.810;2024-03-08T03:03:16;2.00;99.00
1700;DHT22;847;48.058;7.810;2024-03-08T03:05:43;1.80;99.00
1700;DHT22;847;48.058;7.810;2024-03-08T03:08:11;1.70;99.00
1700;DHT22;847;48.058;7.810;2024-03-08T03:10:38;1.80;99.00
1700;DHT22;847;48.058;7.810;2024-03-08T03:13:08;1.70;99.00
1700;DHT22;847;48.058;7.810;2024-03-08T03:15:36;1.70;99.00
1700;DHT22;847;48.058;7.810;2024-03-08T03:18:04;1.70;99.00
1700;DHT22;847;48.058;7.810;2024-03-08T03:20:33;1.80;99.00
1700;DHT22;847;48.058;7.810;2024-03-08T03:23:05;1.90;99.00
1700;DHT22;847;48.058;7.810;2024-03-08T03:25:34;2.00;99.00
1700;DHT22;847;48.058;7.810;2024-03-08T03:28:04;2.00;99.00
1700;DHT22;847;48.058;7.810;2024-03-08T03:30:34;2.00;99.00
1700;DHT22;847;48.058;7.810;2024-03-08T03:33:02;2.00;99.00
1700;DHT22;847;48.058;7.810;2024-03-08T03:35:32;2.00;99.00
1700;DHT22;847;48.058;7.810;2024-03-08T03:37:59;2.00;99.00
1700;DHT22;847;48.058;7.810;2024-03-08T03:40:32;2.00;99.00
1700;DHT22;847;48.058;7.810;2024-03-08T03:43:01;2.00;99.00
1700;DHT22;847;48.058;7.810;2024-03-08T03:45:28;2.00;99.00
1700;DHT22;847;48.058;7.810;2024-03-08T03:48:01;2.00;99.00
1700;DHT22;847;48.058;7.810;2024-03-08T03:50:28;2.00;99.00
1700;DHT22;847;48.058;7.810;2024-03-08T03:52:56;2.00;99.00
1700;DHT22;847;48.058;7.810;2024-03-08T03:55:24;1.90;99.00
1700;DHT22;847;48.058;7.810;2024-03-08T03:57:50;1.90;99.00
1700;DHT22;847;48.058;7.810;2024-03-08T04:00:18;1.90;99.00
1700;DHT22;847;48.058;7.810;2024-03-08T04:02:45;1.90;99.00
1700;DHT22;847;48.058;7.810;2024-03-08T04:05:15;2.00;99.00
1700;DHT22;847;48.058;7.810;2024-03-08T04:07:42;1.90;99.00
1700;DHT22;847;48.058;7.810;2024-03-08T04:10:11;1.70;99.00
1700;DHT22;847;48.058;7.810;2024-03-08T04:12:38;1.70;99.00
1700;DHT22;847;48.058;7.810;2024-03-08T04:15:06;1.80;99.00
1700;DHT22;847;48.058;7.810;2024-03-08T04:17:33;1.70;99.00
1700;DHT22;847;48.058;7.810;2024-03-08T04:20:03;1.70;99.00
1700;DHT22;847;48.058;7.810;2024-03-08T04:22:36;1.70;99.00
1700;DHT22;847;48.058;7.810;2024-03-08T04:25:05;1.80;99.00
1700;DHT22;847;48.058;7.810;2024-03-08T04:27:32;1.70;99.00
1700;DHT22;847;48.058;7.810;2024-03-08T04:29:59;1.70;99.00
1700;DHT22;847;48.058;7.810;2024-03-08T04:32:26;1.70;99.00
1700;DHT22;847;48.058;7.810;2024-03-08T04:34:55;1.70;99.00
1700;DHT22;847;48.058;7.810;2024-03-08T04:37:22;1.70;99.00
1700;DHT22;847;48.058;7.810;2024-03-08T04:39:51;1.80;99.00
1700;DHT22;847;48.058;7.810;2024-03-08T04:42:17;1.70;99.00
1700;DHT22;847;48.058;7.810;2024-03-08T04:44:45;1.70;99.00
1700;DHT22;847;48.058;7.810;2024-03-08T04:47:20;1.70;99.00
1700;DHT22;847;48.058;7.810;2024-03-08T04:49:47;1.80;99.00
1700;DHT22;847;48.058;7.810;2024-03-08T04:52:16;1.80;99.00
1700;DHT22;847;48.058;7.810;2024-03-08T04:54:43;1.80;99.00
1700;DHT22;847;48.058;7.810;2024-03-08T04:57:12;1.70;99.00
1700;DHT22;847;48.058;7.810;2024-03-08T04:59:39;1.70;99.00
1700;DHT22;847;48.058;7.810;2024-03-08T05:02:06;1.60;99.00
1700;DHT22;847;48.058;7.810;2024-03-08T05:04:34;1.60;99.00
1700;DHT22;847;48.058;7.810;2024-03-08T05:07:01;1.60;99.00
1700;DHT22;847;48.058;7.810;2024-03-08T05:09:29;1.60;99.00
1700;DHT22;847;48.058;7.810;2024-03-08T05:11:57;1.50;99.00
1700;DHT22;847;48.058;7.810;2024-03-08T05:14:26;1.50;99.00
1700;DHT22;847;48.058;7.810;2024-03-08T05:16:53;1.50;99.00
1700;DHT22;847;48.058;7.810;2024-03-08T05:19:21;1.40;99.00
1700;DHT22;847;48.058;7.810;2024-03-08T05:21:48;1.50;99.00
1700;DHT22;847;48.058;7.810;2024-03-08T05:24:16;1.50;99.00
1700;DHT22;847;48.058;7.810;2024-03-08T05:26:43;1.60;99.00
1700;DHT22;847;48.058;7.810;2024-03-08T05:29:10;1.50;99.00
1700;DHT22;847;48.058;7.810;2024-03-08T05:31:48;1.50;99.00
1700;DHT22;847;48.058;7.810;2024-03-08T05:34:15;1.50;99.00
1700;DHT22;847;48.058;7.810;2024-03-08T05:36:42;1.50;99.00
1700;DHT22;847;48.058;7.810;2024-03-08T05:39:10;1.50;99.00
1700;DHT22;847;48.058;7.810;2024-03-08T05:41:37;1.40;99.00
1700;DHT22;847;48.058;7.810;2024-03-08T05:44:04;1.50;99.00
1700;DHT22;847;48.058;7.810;2024-03-08T05:46:31;1.50;99.00
1700;DHT22;847;48.058;7.810;2024-03-08T05:48:59;1.60;99.00
1700;DHT22;847;48.058;7.810;2024-03-08T05:51:26;1.60;99.00
1700;DHT22;847;48.058;7.810;2024-03-08T05:53:53;1.50;99.00
1700;DHT22;847;48.058;7.810;2024-03-08T05:56:22;1.50;99.00
1700;DHT22;847;48.058;7.810;2024-03-08T05:58:49;1.50;99.00
1700;DHT22;847;48.058;7.810;2024-03-08T06:01:16;1.50;99.00
1700;DHT22;847;48.058;7.810;2024-03-08T06:03:43;1.40;99.00
1700;DHT22;847;48.058;7.810;2024-03-08T06:06:12;1.50;99.00
1700;DHT22;847;48.058;7.810;2024-03-08T06:08:39;1.50;99.00
1700;DHT22;847;48.058;7.810;2024-03-08T06:11:09;1.50;99.00
1700;DHT22;847;48.058;7.810;2024-03-08T06:13:36;1.50;99.00
1700;DHT22;847;48.058;7.810;2024-03-08T06:16:03;1.60;99.00
1700;DHT22;847;48.058;7.810;2024-03-08T06:18:30;1.50;99.00
1700;DHT22;847;48.058;7.810;2024-03-08T06:20:56;1.60;99.00
1700;DHT22;847;48.058;7.810;2024-03-08T06:23:25;1.60;99.00
1700;DHT22;847;48.058;7.810;2024-03-08T06:25:53;1.70;99.00
1700;DHT22;847;48.058;7.810;2024-03-08T06:28:20;1.50;99.00
1700;DHT22;847;48.058;7.810;2024-03-08T06:30:46;1.50;99.00
1700;DHT22;847;48.058;7.810;2024-03-08T06:33:23;1.50;99.00
1700;DHT22;847;48.058;7.810;2024-03-08T06:35:57;1.50;99.00
1700;DHT22;847;48.058;7.810;2024-03-08T06:38:26;1.60;99.00
1700;DHT22;847;48.058;7.810;2024-03-08T06:40:53;1.60;99.00
1700;DHT22;847;48.058;7.810;2024-03-08T06:43:20;1.60;99.00
1700;DHT22;847;48.058;7.810;2024-03-08T06:45:47;1.50;99.00
1700;DHT22;847;48.058;7.810;2024-03-08T06:48:15;1.50;99.00
1700;DHT22;847;48.058;7.810;2024-03-08T06:50:42;1.40;99.00
1700;DHT22;847;48.058;7.810;2024-03-08T06:53:09;1.40;99.00
1700;DHT22;847;48.058;7.810;2024-03-08T06:55:38;1.50;99.00
1700;DHT22;847;48.058;7.810;2024-03-08T06:58:05;1.60;99.00
1700;DHT22;847;48.058;7.810;2024-03-08T07:00:32;1.50;99.00
1700;DHT22;847;48.058;7.810;2024-03-08T07:02:59;1.40;99.00
1700;DHT22;847;48.058;7.810;2024-03-08T07:05:26;1.30;99.00
1700;DHT22;847;48.058;7.810;2024-03-08T07:07:53;1.50;99.00
1700;DHT22;847;48.058;7.810;2024-03-08T07:10:20;1.60;99.00
1700;DHT22;847;48.058;7.810;2024-03-08T07:12:53;1.60;99.00
1700;DHT22;847;48.058;7.810;2024-03-08T07:15:21;1.70;99.00
1700;DHT22;847;48.058;7.810;2024-03-08T07:17:49;1.80;99.00
1700;DHT22;847;48.058;7.810;2024-03-08T07:20:18;1.90;99.00
1700;DHT22;847;48.058;7.810;2024-03-08T07:22:49;1.80;99.00
1700;DHT22;847;48.058;7.810;2024-03-08T07:25:17;1.90;99.00
1700;DHT22;847;48.058;7.810;2024-03-08T07:27:52;1.90;99.00
1700;DHT22;847;48.058;7.810;2024-03-08T07:30:19;1.90;99.00
1700;DHT22;847;48.058;7.810;2024-03-08T07:33:04;2.00;99.00
1700;DHT22;847;48.058;7.810;2024-03-08T07:35:33;2.10;99.00
1700;DHT22;847;48.058;7.810;2024-03-08T07:38:04;2.20;99.00
1700;DHT22;847;48.058;7.810;2024-03-08T07:40:35;2.30;99.00
1700;DHT22;847;48.058;7.810;2024-03-08T07:43:05;2.40;99.00
1700;DHT22;847;48.058;7.810;2024-03-08T07:45:36;2.50;99.00
1700;DHT22;847;48.058;7.810;2024-03-08T07:48:05;2.60;99.00
1700;DHT22;847;48.058;7.810;2024-03-08T07:50:36;2.70;99.00
1700;DHT22;847;48.058;7.810;2024-03-08T07:53:04;2.80;99.00
1700;DHT22;847;48.058;7.810;2024-03-08T07:55:32;3.00;99.00
1700;DHT22;847;48.058;7.810;2024-03-08T07:58:08;3.10;99.00
1700;DHT22;847;48.058;7.810;2024-03-08T08:00:37;3.30;99.00
1700;DHT22;847;48.058;7.810;2024-03-08T08:03:05;3.40;99.00
1700;DHT22;847;48.058;7.810;2024-03-08T08:05:33;3.40;99.00
1700;DHT22;847;48.058;7.810;2024-03-08T08:08:01;3.50;99.00
1700;DHT22;847;48.058;7.810;2024-03-08T08:10:31;3.50;99.00
1700;DHT22;847;48.058;7.810;2024-03-08T08:12:58;3.50;99.00
1700;DHT22;847;48.058;7.810;2024-03-08T08:15:28;3.60;99.00
1700;DHT22;847;48.058;7.810;2024-03-08T08:17:55;3.70;99.00
1700;DHT22;847;48.058;7.810;2024-03-08T08:20:32;3.70;99.00
1700;DHT22;847;48.058;7.810;2024-03-08T08:22:59;3.70;99.00
1700;DHT22;847;48.058;7.810;2024-03-08T08:25:26;3.80;99.00
1700;DHT22;847;48.058;7.810;2024-03-08T08:27:53;3.80;99.00
1700;DHT22;847;48.058;7.810;2024-03-08T08:30:23;3.80;99.00
1700;DHT22;847;48.058;7.810;2024-03-08T08:35:48;3.90;99.00
1700;DHT22;847;48.058;7.810;2024-03-08T08:38:19;4.00;99.00
1700;DHT22;847;48.058;7.810;2024-03-08T08:40:47;4.00;99.00
1700;DHT22;847;48.058;7.810;2024-03-08T08:43:15;4.10;99.00
1700;DHT22;847;48.058;7.810;2024-03-08T08:45:45;4.10;99.00
1700;DHT22;847;48.058;7.810;2024-03-08T08:48:18;4.20;99.00
1700;DHT22;847;48.058;7.810;2024-03-08T08:50:45;4.20;99.00
1700;DHT22;847;48.058;7.810;2024-03-08T08:53:14;4.30;99.00
1700;DHT22;847;48.058;7.810;2024-03-08T08:55:43;4.40;99.00
1700;DHT22;847;48.058;7.810;2024-03-08T08:58:13;4.40;99.00
1700;DHT22;847;48.058;7.810;2024-03-08T09:00:41;4.50;99.00
1700;DHT22;847;48.058;7.810;2024-03-08T09:03:10;4.50;99.00
1700;DHT22;847;48.058;7.810;2024-03-08T09:05:40;4.50;99.00
1700;DHT22;847;48.058;7.810;2024-03-08T09:08:09;4.60;99.00
1700;DHT22;847;48.058;7.810;2024-03-08T09:10:37;4.70;99.00
1700;DHT22;847;48.058;7.810;2024-03-08T09:13:05;4.70;99.00
1700;DHT22;847;48.058;7.810;2024-03-08T09:15:35;4.80;99.00
1700;DHT22;847;48.058;7.810;2024-03-08T09:18:02;4.90;99.00
1700;DHT22;847;48.058;7.810;2024-03-08T09:23:49;5.00;99.00
1700;DHT22;847;48.058;7.810;2024-03-08T09:26:16;5.10;99.00
1700;DHT22;847;48.058;7.810;2024-03-08T09:28:43;5.10;99.00
1700;DHT22;847;48.058;7.810;2024-03-08T09:31:11;5.20;99.00
1700;DHT22;847;48.058;7.810;2024-03-08T09:33:38;5.20;99.00
1700;DHT22;847;48.058;7.810;2024-03-08T09:36:06;5.30;99.00
1700;DHT22;847;48.058;7.810;2024-03-08T09:38:34;5.30;99.00
1700;DHT22;847;48.058;7.810;2024-03-08T09:41:02;5.40;99.00
1700;DHT22;847;48.058;7.810;2024-03-08T09:46:22;5.60;99.00
1700;DHT22;847;48.058;7.810;2024-03-08T09:51:35;5.70;99.00
1700;DHT22;847;48.058;7.810;2024-03-08T09:54:02;5.70;99.00
1700;DHT22;847;48.058;7.810;2024-03-08T09:56:32;5.80;99.00
1700;DHT22;847;48.058;7.810;2024-03-08T09:58:59;6.10;99.00
1700;DHT22;847;48.058;7.810;2024-03-08T10:01:46;6.30;99.00
1700;DHT22;847;48.058;7.810;2024-03-08T10:04:13;6.40;99.00
1700;DHT22;847;48.058;7.810;2024-03-08T10:06:41;6.60;99.00
1700;DHT22;847;48.058;7.810;2024-03-08T10:09:09;6.70;99.00
1700;DHT22;847;48.058;7.810;2024-03-08T10:11:38;6.80;99.00
1700;DHT22;847;48.058;7.810;2024-03-08T10:14:07;7.00;99.00
1700;DHT22;847;48.058;7.810;2024-03-08T10:16:36;7.10;99.00
1700;DHT22;847;48.058;7.810;2024-03-08T10:19:04;7.20;99.00
1700;DHT22;847;48.058;7.810;2024-03-08T10:21:32;7.20;98.70
1700;DHT22;847;48.058;7.810;2024-03-08T10:23:59;7.30;98.60
1700;DHT22;847;48.058;7.810;2024-03-08T10:26:29;7.40;96.70
1700;DHT22;847;48.058;7.810;2024-03-08T10:28:58;7.50;97.80
1700;DHT22;847;48.058;7.810;2024-03-08T10:31:25;7.60;98.20
1700;DHT22;847;48.058;7.810;2024-03-08T10:33:52;7.50;96.30
1700;DHT22;847;48.058;7.810;2024-03-08T10:36:19;7.50;95.50
1700;DHT22;847;48.058;7.810;2024-03-08T10:38:47;7.50;95.40
1700;DHT22;847;48.058;7.810;2024-03-08T10:41:19;7.60;95.60
1700;DHT22;847;48.058;7.810;2024-03-08T10:43:57;7.70;95.30
1700;DHT22;847;48.058;7.810;2024-03-08T10:46:39;7.80;95.30
1700;DHT22;847;48.058;7.810;2024-03-08T10:49:12;7.90;94.30
1700;DHT22;847;48.058;7.810;2024-03-08T10:51:43;7.90;93.10
1700;DHT22;847;48.058;7.810;2024-03-08T10:54:12;8.00;93.80
1700;DHT22;847;48.058;7.810;2024-03-08T10:56:41;8.10;93.80
1700;DHT22;847;48.058;7.810;2024-03-08T10:59:08;8.10;93.30
1700;DHT22;847;48.058;7.810;2024-03-08T11:01:37;8.20;93.10
1700;DHT22;847;48.058;7.810;2024-03-08T11:04:04;8.20;92.60
1700;DHT22;847;48.058;7.810;2024-03-08T11:06:42;8.30;93.30
1700;DHT22;847;48.058;7.810;2024-03-08T11:09:27;8.30;92.20
1700;DHT22;847;48.058;7.810;2024-03-08T11:12:19;8.40;93.00
1700;DHT22;847;48.058;7.810;2024-03-08T11:14:47;8.40;93.10
1700;DHT22;847;48.058;7.810;2024-03-08T11:17:21;8.50;93.30
1700;DHT22;847;48.058;7.810;2024-03-08T11:19:48;8.80;93.50
1700;DHT22;847;48.058;7.810;2024-03-08T11:22:26;8.90;91.40
1700;DHT22;847;48.058;7.810;2024-03-08T11:24:58;9.10;91.70
1700;DHT22;847;48.058;7.810;2024-03-08T11:27:29;9.50;89.50
1700;DHT22;847;48.058;7.810;2024-03-08T11:30:01;9.40;91.70
1700;DHT22;847;48.058;7.810;2024-03-08T11:32:38;9.50;90.70
1700;DHT22;847;48.058;7.810;2024-03-08T11:35:18;9.60;90.50
1700;DHT22;847;48.058;7.810;2024-03-08T11:37:45;9.50;90.20
1700;DHT22;847;48.058;7.810;2024-03-08T11:40:14;9.30;90.00
1700;DHT22;847;48.058;7.810;2024-03-08T11:42:44;9.20;90.50
1700;DHT22;847;48.058;7.810;2024-03-08T11:45:12;9.50;91.70
1700;DHT22;847;48.058;7.810;2024-03-08T11:47:41;9.70;91.80
1700;DHT22;847;48.058;7.810;2024-03-08T11:50:11;9.70;93.10
1700;DHT22;847;48.058;7.810;2024-03-08T11:52:38;9.80;92.30
1700;DHT22;847;48.058;7.810;2024-03-08T11:55:05;9.70;91.20
1700;DHT22;847;48.058;7.810;2024-03-08T11:57:33;9.70;90.60
1700;DHT22;847;48.058;7.810;2024-03-08T12:00:00;9.70;91.30
1700;DHT22;847;48.058;7.810;2024-03-08T12:02:32;9.70;92.00
1700;DHT22;847;48.058;7.810;2024-03-08T12:05:04;9.60;91.80
1700;DHT22;847;48.058;7.810;2024-03-08T12:07:35;9.90;91.40
1700;DHT22;847;48.058;7.810;2024-03-08T12:10:15;9.90;91.60
1700;DHT22;847;48.058;7.810;2024-03-08T12:12:43;10.00;91.20
1700;DHT22;847;48.058;7.810;2024-03-08T12:15:10;9.90;91.20
1700;DHT22;847;48.058;7.810;2024-03-08T12:17:38;9.70;91.80
1700;DHT22;847;48.058;7.810;2024-03-08T12:20:14;9.80;91.80
1700;DHT22;847;48.058;7.810;2024-03-08T12:22:42;10.00;91.20
1700;DHT22;847;48.058;7.810;2024-03-08T12:25:11;10.10;91.50
1700;DHT22;847;48.058;7.810;2024-03-08T12:27:38;10.10;90.60
1700;DHT22;847;48.058;7.810;2024-03-08T12:30:22;10.00;91.90
1700;DHT22;847;48.058;7.810;2024-03-08T12:32:53;10.20;90.00
1700;DHT22;847;48.058;7.810;2024-03-08T12:35:24;10.20;90.60
1700;DHT22;847;48.058;7.810;2024-03-08T12:37:56;10.30;89.10
1700;DHT22;847;48.058;7.810;2024-03-08T12:40:26;10.40;88.80
1700;DHT22;847;48.058;7.810;2024-03-08T12:42:54;10.40;90.00
1700;DHT22;847;48.058;7.810;2024-03-08T12:45:21;10.40;90.00
1700;DHT22;847;48.058;7.810;2024-03-08T12:47:49;10.50;89.90
1700;DHT22;847;48.058;7.810;2024-03-08T12:50:16;10.60;89.00
1700;DHT22;847;48.058;7.810;2024-03-08T12:52:45;10.60;89.40
1700;DHT22;847;48.058;7.810;2024-03-08T12:55:12;10.60;90.00
1700;DHT22;847;48.058;7.810;2024-03-08T12:57:39;10.50;89.80
1700;DHT22;847;48.058;7.810;2024-03-08T13:00:06;10.70;89.00
1700;DHT22;847;48.058;7.810;2024-03-08T13:02:39;10.80;88.20
1700;DHT22;847;48.058;7.810;2024-03-08T13:05:06;10.90;88.60
1700;DHT22;847;48.058;7.810;2024-03-08T13:07:35;10.90;88.60
1700;DHT22;847;48.058;7.810;2024-03-08T13:10:05;10.90;90.00
1700;DHT22;847;48.058;7.810;2024-03-08T13:12:32;10.80;88.50
1700;DHT22;847;48.058;7.810;2024-03-08T13:15:01;10.70;88.20
1700;DHT22;847;48.058;7.810;2024-03-08T13:17:30;10.60;88.40
1700;DHT22;847;48.058;7.810;2024-03-08T13:19:57;10.70;89.50
1700;DHT22;847;48.058;7.810;2024-03-08T13:22:24;10.80;90.20
1700;DHT22;847;48.058;7.810;2024-03-08T13:24:51;10.80;87.80
1700;DHT22;847;48.058;7.810;2024-03-08T13:27:20;10.90;88.90
1700;DHT22;847;48.058;7.810;2024-03-08T13:29:47;10.90;88.70
1700;DHT22;847;48.058;7.810;2024-03-08T13:32:15;10.90;88.20
1700;DHT22;847;48.058;7.810;2024-03-08T13:34:42;10.90;89.30
1700;DHT22;847;48.058;7.810;2024-03-08T13:37:10;10.90;89.40
1700;DHT22;847;48.058;7.810;2024-03-08T13:39:37;11.00;88.30
1700;DHT22;847;48.058;7.810;2024-03-08T13:42:09;10.90;87.40
1700;DHT22;847;48.058;7.810;2024-03-08T13:44:43;11.00;90.00
1700;DHT22;847;48.058;7.810;2024-03-08T13:47:09;11.20;90.50
1700;DHT22;847;48.058;7.810;2024-03-08T13:49:37;11.20;89.80
1700;DHT22;847;48.058;7.810;2024-03-08T13:52:04;11.20;89.40
1700;DHT22;847;48.058;7.810;2024-03-08T13:54:33;11.30;90.10
1700;DHT22;847;48.058;7.810;2024-03-08T13:57:00;11.20;89.00
1700;DHT22;847;48.058;7.810;2024-03-08T13:59:29;11.40;90.00
1700;DHT22;847;48.058;7.810;2024-03-08T14:01:59;11.40;90.30
1700;DHT22;847;48.058;7.810;2024-03-08T14:04:27;11.40;89.10
1700;DHT22;847;48.058;7.810;2024-03-08T14:06:54;11.40;90.30
1700;DHT22;847;48.058;7.810;2024-03-08T14:09:25;11.50;88.60
1700;DHT22;847;48.058;7.810;2024-03-08T14:11:52;11.40;89.70
1700;DHT22;847;48.058;7.810;2024-03-08T14:14:20;11.40;88.70
1700;DHT22;847;48.058;7.810;2024-03-08T14:16:49;11.30;87.70
1700;DHT22;847;48.058;7.810;2024-03-08T14:19:19;11.30;87.90
1700;DHT22;847;48.058;7.810;2024-03-08T14:21:46;11.30;88.10
1700;DHT22;847;48.058;7.810;2024-03-08T14:24:14;11.30;87.70
1700;DHT22;847;48.058;7.810;2024-03-08T14:26:44;11.40;88.40
1700;DHT22;847;48.058;7.810;2024-03-08T14:29:12;11.50;88.10
1700;DHT22;847;48.058;7.810;2024-03-08T14:31:39;11.40;88.80
1700;DHT22;847;48.058;7.810;2024-03-08T14:34:08;11.40;88.70
1700;DHT22;847;48.058;7.810;2024-03-08T14:36:36;11.50;89.10
1700;DHT22;847;48.058;7.810;2024-03-08T14:39:07;11.50;88.50
1700;DHT22;847;48.058;7.810;2024-03-08T14:41:34;11.50;88.80
1700;DHT22;847;48.058;7.810;2024-03-08T14:44:00;11.60;89.00
1700;DHT22;847;48.058;7.810;2024-03-08T14:46:28;11.60;89.30
1700;DHT22;847;48.058;7.810;2024-03-08T14:48:56;11.50;88.90
1700;DHT22;847;48.058;7.810;2024-03-08T14:51:23;11.50;88.80
1700;DHT22;847;48.058;7.810;2024-03-08T14:53:53;11.50;88.40
1700;DHT22;847;48.058;7.810;2024-03-08T14:56:20;11.50;88.80
1700;DHT22;847;48.058;7.810;2024-03-08T14:58:48;11.40;88.90
1700;DHT22;847;48.058;7.810;2024-03-08T15:01:17;11.40;88.80
1700;DHT22;847;48.058;7.810;2024-03-08T15:03:47;11.30;88.10
1700;DHT22;847;48.058;7.810;2024-03-08T15:06:15;11.30;88.60
1700;DHT22;847;48.058;7.810;2024-03-08T15:08:45;11.30;89.10
1700;DHT22;847;48.058;7.810;2024-03-08T15:11:14;11.30;89.60
1700;DHT22;847;48.058;7.810;2024-03-08T15:13:47;11.30;90.10
1700;DHT22;847;48.058;7.810;2024-03-08T15:16:17;11.30;89.90
1700;DHT22;847;48.058;7.810;2024-03-08T15:18:44;11.40;89.10
1700;DHT22;847;48.058;7.810;2024-03-08T15:21:17;11.40;89.40
1700;DHT22;847;48.058;7.810;2024-03-08T15:23:44;11.30;89.50
1700;DHT22;847;48.058;7.810;2024-03-08T15:26:17;11.30;88.70
1700;DHT22;847;48.058;7.810;2024-03-08T15:28:44;11.30;88.70
1700;DHT22;847;48.058;7.810;2024-03-08T15:31:13;11.20;89.20
1700;DHT22;847;48.058;7.810;2024-03-08T15:33:40;11.30;90.00
1700;DHT22;847;48.058;7.810;2024-03-08T15:36:10;11.40;90.50
1700;DHT22;847;48.058;7.810;2024-03-08T15:38:39;11.40;89.30
1700;DHT22;847;48.058;7.810;2024-03-08T15:41:06;11.40;89.40
1700;DHT22;847;48.058;7.810;2024-03-08T15:43:37;11.30;90.00
1700;DHT22;847;48.058;7.810;2024-03-08T15:46:05;11.20;89.10
1700;DHT22;847;48.058;7.810;2024-03-08T15:48:32;11.20;89.00
1700;DHT22;847;48.058;7.810;2024-03-08T15:51:00;11.20;88.90
1700;DHT22;847;48.058;7.810;2024-03-08T15:53:30;11.30;91.00
1700;DHT22;847;48.058;7.810;2024-03-08T15:55:57;11.30;89.10
1700;DHT22;847;48.058;7.810;2024-03-08T15:58:24;11.30;88.80
1700;DHT22;847;48.058;7.810;2024-03-08T16:00:52;11.30;88.80
1700;DHT22;847;48.058;7.810;2024-03-08T16:03:21;11.30;88.20
1700;DHT22;847;48.058;7.810;2024-03-08T16:05:48;11.30;88.30
1700;DHT22;847;48.058;7.810;2024-03-08T16:08:17;11.30;87.80
1700;DHT22;847;48.058;7.810;2024-03-08T16:10:47;11.30;88.90
1700;DHT22;847;48.058;7.810;2024-03-08T16:13:16;11.30;88.80
1700;DHT22;847;48.058;7.810;2024-03-08T16:15:43;11.40;89.00
1700;DHT22;847;48.058;7.810;2024-03-08T16:18:12;11.30;88.50
1700;DHT22;847;48.058;7.810;2024-03-08T16:20:39;11.30;89.40
1700;DHT22;847;48.058;7.810;2024-03-08T16:23:07;11.30;89.50
1700;DHT22;847;48.058;7.810;2024-03-08T16:25:36;11.30;88.90
1700;DHT22;847;48.058;7.810;2024-03-08T16:28:04;11.20;89.20
1700;DHT22;847;48.058;7.810;2024-03-08T16:30:32;11.20;90.00
1700;DHT22;847;48.058;7.810;2024-03-08T16:32:59;11.20;89.90
1700;DHT22;847;48.058;7.810;2024-03-08T16:35:27;11.10;90.10
1700;DHT22;847;48.058;7.810;2024-03-08T16:37:54;11.10;90.30
1700;DHT22;847;48.058;7.810;2024-03-08T16:40:21;11.00;90.00
1700;DHT22;847;48.058;7.810;2024-03-08T16:42:49;10.90;90.20
1700;DHT22;847;48.058;7.810;2024-03-08T16:45:18;10.90;90.80
1700;DHT22;847;48.058;7.810;2024-03-08T16:47:45;10.90;91.00
1700;DHT22;847;48.058;7.810;2024-03-08T16:50:15;10.90;91.20
1700;DHT22;847;48.058;7.810;2024-03-08T16:52:44;10.80;91.50